Time;durP1;ratioP1;P1;durP2;ratioP2;P2;SDS_P1;SDS_P2;PMS_P1;PMS_P2;Temp;Humidity;BMP_temperature;BMP_pressure;BME280_temperature;BME280_humidity;BME280_pressure;Samples;Min_cycle;Max_cycle;Signal;HPM_P1;HPM_P2
2023/09/30 00:02:22;;;;;;;26.15;13.25;;;21.30;85.50;;;;;;5041500;28;20038;-52
2023/09/30 00:04:47;;;;;;;20.80;12.35;;;21.40;85.60;;;;;;5025332;28;20033;-51
2023/09/30 00:07:13;;;;;;;20.58;12.43;;;21.30;85.60;;;;;;5041977;28;20401;-51
2023/09/30 00:09:39;;;;;;;23.00;12.77;;;21.30;85.70;;;;;;5010001;28;20483;-51
2023/09/30 00:12:05;;;;;;;21.63;12.48;;;21.30;86.30;;;;;;5024849;28;20074;-52
2023/09/30 00:14:32;;;;;;;25.40;12.57;;;21.30;85.70;;;;;;5025169;28;20018;-52
2023/09/30 00:16:57;;;;;;;23.60;12.90;;;21.30;85.80;;;;;;5024875;28;20041;-51
2023/09/30 00:19:23;;;;;;;21.38;12.55;;;21.30;85.80;;;;;;5009883;28;20026;-51
2023/09/30 00:21:49;;;;;;;25.40;12.43;;;21.30;85.80;;;;;;5041488;28;20407;-52
2023/09/30 00:24:14;;;;;;;23.70;12.65;;;21.20;85.90;;;;;;5041182;28;20490;-51
2023/09/30 00:26:40;;;;;;;22.45;13.00;;;21.20;85.90;;;;;;5041333;28;20038;-51
2023/09/30 00:29:05;;;;;;;26.95;12.95;;;21.20;86.50;;;;;;5041099;28;20035;-51
2023/09/30 00:31:31;;;;;;;19.67;11.93;;;21.20;86.00;;;;;;5009699;28;20050;-51
2023/09/30 00:33:57;;;;;;;24.67;12.57;;;21.20;86.00;;;;;;5041257;28;20069;-52
2023/09/30 00:36:22;;;;;;;30.92;12.30;;;21.20;86.00;;;;;;5009716;28;20027;-51
2023/09/30 00:38:48;;;;;;;20.52;12.25;;;21.20;86.10;;;;;;5009551;28;20030;-51
2023/09/30 00:41:14;;;;;;;22.38;12.13;;;21.20;86.20;;;;;;5009841;28;20030;-51
2023/09/30 00:43:40;;;;;;;21.92;12.48;;;21.20;86.20;;;;;;5042205;28;20050;-51
2023/09/30 00:46:18;;;;;;;21.63;11.38;;;21.20;86.30;;;;;;5040969;28;20117;-51
2023/09/30 00:48:43;;;;;;;22.95;12.50;;;21.20;87.00;;;;;;5040802;28;20033;-51
2023/09/30 00:51:09;;;;;;;22.33;13.00;;;21.20;86.30;;;;;;5040919;28;20030;-51
2023/09/30 00:53:34;;;;;;;18.67;11.40;;;21.20;86.40;;;;;;5041901;28;20030;-51
2023/09/30 00:56:00;;;;;;;19.88;11.60;;;21.20;86.30;;;;;;5023578;28;20062;-51
2023/09/30 00:58:28;;;;;;;21.70;12.27;;;21.20;86.40;;;;;;5024338;28;20038;-51
2023/09/30 01:00:54;;;;;;;26.92;11.77;;;21.20;86.50;;;;;;5007870;28;20109;-51
2023/09/30 01:03:19;;;;;;;22.65;12.13;;;21.10;86.50;;;;;;5024156;28;20037;-51
2023/09/30 01:05:45;;;;;;;26.55;12.43;;;21.10;86.50;;;;;;5040613;28;20093;-51
2023/09/30 01:08:11;;;;;;;20.83;11.60;;;21.10;86.50;;;;;;5023887;28;20050;-51
2023/09/30 01:10:36;;;;;;;21.27;11.68;;;21.10;86.50;;;;;;5024047;28;20025;-51
2023/09/30 01:13:02;;;;;;;19.55;11.68;;;21.10;86.60;;;;;;5040777;28;20030;-51
2023/09/30 01:15:29;;;;;;;20.15;11.88;;;21.10;86.60;;;;;;5023718;28;20027;-51
2023/09/30 01:17:55;;;;;;;24.20;12.15;;;21.10;86.70;;;;;;5023522;28;20098;-51
2023/09/30 01:20:22;;;;;;;21.02;12.05;;;21.10;86.70;;;;;;5040387;28;20077;-51
2023/09/30 01:22:48;;;;;;;21.27;11.23;;;21.10;86.70;;;;;;5008825;28;20037;-51
2023/09/30 01:25:13;;;;;;;22.02;12.40;;;21.00;86.80;;;;;;5008666;28;20086;-51
2023/09/30 01:27:39;;;;;;;23.10;12.15;;;21.00;86.80;;;;;;5023459;28;20430;-51
2023/09/30 01:30:05;;;;;;;19.80;11.27;;;21.00;86.80;;;;;;5023513;28;20038;-51
2023/09/30 01:32:31;;;;;;;20.15;11.52;;;21.00;86.80;;;;;;5039813;28;20109;-51
2023/09/30 01:34:56;;;;;;;20.48;11.25;;;21.10;86.90;;;;;;5040020;28;20466;-51
2023/09/30 01:37:22;;;;;;;20.42;11.05;;;21.00;86.90;;;;;;5008339;28;20027;-51
2023/09/30 01:39:50;;;;;;;16.20;10.82;;;21.00;87.10;;;;;;5039844;28;20030;-51
2023/09/30 01:42:15;;;;;;;16.35;10.07;;;21.00;87.80;;;;;;5008261;28;20037;-51
2023/09/30 01:44:41;;;;;;;22.50;11.35;;;21.00;87.10;;;;;;5006914;28;20034;-51
2023/09/30 01:47:06;;;;;;;23.80;11.70;;;21.00;87.20;;;;;;5008260;28;20041;-52
2023/09/30 01:49:32;;;;;;;19.48;11.25;;;21.00;87.20;;;;;;5023084;28;20101;-52
2023/09/30 01:51:57;;;;;;;18.02;10.60;;;20.90;87.20;;;;;;5007968;28;20034;-52
2023/09/30 01:54:23;;;;;;;22.35;10.85;;;21.00;87.20;;;;;;5039651;28;20061;-51
2023/09/30 01:56:49;;;;;;;23.15;11.50;;;20.90;87.20;;;;;;5006789;28;20164;-52
2023/09/30 01:59:15;;;;;;;19.08;11.02;;;20.90;87.20;;;;;;5008141;28;20053;-51
2023/09/30 02:01:40;;;;;;;18.50;11.13;;;20.90;87.30;;;;;;5008075;28;20030;-51
2023/09/30 02:04:06;;;;;;;17.42;10.98;;;20.90;87.30;;;;;;5023000;28;20066;-52
2023/09/30 02:06:32;;;;;;;20.67;11.23;;;20.90;87.40;;;;;;5038597;28;20026;-51
2023/09/30 02:08:57;;;;;;;20.30;11.75;;;20.90;87.40;;;;;;5022768;28;20069;-51
2023/09/30 02:11:23;;;;;;;18.67;11.38;;;20.90;87.50;;;;;;5006300;28;20049;-52
2023/09/30 02:13:49;;;;;;;24.30;12.05;;;20.90;87.50;;;;;;5039385;28;20026;-51
2023/09/30 02:16:14;;;;;;;20.63;12.07;;;20.90;87.60;;;;;;5022758;28;20018;-51
2023/09/30 02:18:44;;;;;;;22.67;11.50;;;20.90;87.60;;;;;;5039378;28;20026;-51
2023/09/30 02:21:10;;;;;;;20.27;11.13;;;20.90;87.60;;;;;;5022246;28;20113;-51
2023/09/30 02:23:36;;;;;;;19.98;11.95;;;20.90;87.70;;;;;;5007833;28;20030;-51
2023/09/30 02:26:02;;;;;;;18.73;11.40;;;20.90;87.70;;;;;;5007514;28;20037;-51
2023/09/30 02:28:29;;;;;;;17.40;10.85;;;20.90;87.80;;;;;;5022441;28;20053;-52
2023/09/30 02:30:54;;;;;;;21.67;11.30;;;20.90;87.80;;;;;;5038884;28;20022;-51
2023/09/30 02:33:20;;;;;;;19.95;11.95;;;20.90;87.90;;;;;;5007363;28;20030;-52
2023/09/30 02:35:46;;;;;;;19.15;11.23;;;20.90;87.90;;;;;;5007516;28;20026;-50
2023/09/30 02:38:15;;;;;;;19.02;11.38;;;20.90;87.90;;;;;;5007330;28;20379;-51
2023/09/30 02:40:45;;;;;;;19.58;12.07;;;20.90;88.00;;;;;;5021977;28;20031;-51
2023/09/30 02:43:10;;;;;;;21.60;11.82;;;20.90;88.00;;;;;;5037942;28;20034;-52
2023/09/30 02:45:36;;;;;;;18.40;11.23;;;20.80;88.10;;;;;;5038681;28;20049;-51
2023/09/30 02:48:01;;;;;;;19.75;12.10;;;20.90;88.20;;;;;;5039012;28;20109;-52
2023/09/30 02:50:27;;;;;;;18.30;11.40;;;20.80;88.20;;;;;;5006837;28;20038;-51
2023/09/30 02:52:52;;;;;;;18.02;10.98;;;20.80;88.30;;;;;;5038719;28;20034;-51
2023/09/30 02:55:18;;;;;;;20.55;11.82;;;20.80;88.20;;;;;;5005920;28;20030;-51
2023/09/30 02:57:46;;;;;;;19.92;11.65;;;20.90;88.40;;;;;;5039126;28;20034;-51
2023/09/30 03:00:23;;;;;;;17.58;11.30;;;20.80;88.40;;;;;;5038165;28;20030;-51
2023/09/30 03:02:52;;;;;;;19.02;11.13;;;20.80;88.50;;;;;;5007214;28;20046;-51
2023/09/30 03:05:18;;;;;;;19.08;11.07;;;20.80;88.50;;;;;;5022262;28;20026;-51
2023/09/30 03:07:45;;;;;;;18.40;10.73;;;20.80;88.60;;;;;;5006796;28;20031;-51
2023/09/30 03:10:12;;;;;;;16.20;10.77;;;20.90;88.60;;;;;;5005487;28;20438;-51
2023/09/30 03:12:38;;;;;;;17.73;10.27;;;20.80;88.60;;;;;;5005426;28;20030;-52
2023/09/30 03:15:04;;;;;;;18.48;10.77;;;20.80;88.80;;;;;;5005216;28;20429;-52
2023/09/30 03:17:31;;;;;;;15.98;10.40;;;20.80;88.80;;;;;;5038092;28;20034;-51
2023/09/30 03:19:57;;;;;;;22.10;10.48;;;20.80;88.90;;;;;;5037745;28;20081;-51
2023/09/30 03:22:23;;;;;;;16.80;10.75;;;20.80;88.90;;;;;;5038317;28;20101;-51
2023/09/30 03:24:49;;;;;;;17.58;10.63;;;20.80;89.00;;;;;;5038192;28;20030;-51
2023/09/30 03:27:15;;;;;;;17.15;11.07;;;20.80;89.10;;;;;;5038077;28;20045;-51
2023/09/30 03:29:41;;;;;;;16.05;10.45;;;20.80;89.10;;;;;;5037681;28;20037;-52
2023/09/30 03:32:07;;;;;;;18.27;10.95;;;20.80;89.80;;;;;;5006506;28;20030;-51
2023/09/30 03:34:36;;;;;;;17.85;10.50;;;20.80;89.20;;;;;;5006518;28;20033;-51
2023/09/30 03:37:02;;;;;;;19.95;10.57;;;20.80;89.30;;;;;;5005055;28;20033;-52
2023/09/30 03:39:27;;;;;;;16.52;10.57;;;20.80;89.20;;;;;;5006551;28;20035;-51
2023/09/30 03:41:56;;;;;;;20.40;10.80;;;20.70;89.90;;;;;;5006901;28;20027;-51
2023/09/30 03:44:23;;;;;;;18.67;11.02;;;20.70;89.30;;;;;;5021569;28;20034;-51
2023/09/30 03:46:49;;;;;;;15.95;10.10;;;20.70;89.40;;;;;;5006512;28;20041;-51
2023/09/30 03:49:16;;;;;;;15.70;10.32;;;20.70;89.40;;;;;;5037586;28;20062;-51
2023/09/30 03:51:41;;;;;;;16.13;10.65;;;20.70;89.40;;;;;;5006288;28;20463;-51
2023/09/30 03:54:08;;;;;;;17.40;10.52;;;20.70;89.50;;;;;;5038007;28;20125;-51
2023/09/30 03:56:34;;;;;;;19.42;10.32;;;20.70;89.40;;;;;;5021252;28;20027;-51
2023/09/30 03:58:59;;;;;;;16.42;9.75;;;20.70;89.50;;;;;;5006342;28;20058;-51
2023/09/30 04:01:26;;;;;;;18.92;9.95;;;20.70;89.60;;;;;;5037980;28;20038;-51
2023/09/30 04:03:55;;;;;;;17.98;9.90;;;20.70;89.60;;;;;;5037480;28;20031;-52
2023/09/30 04:06:20;;;;;;;14.88;9.40;;;20.70;89.70;;;;;;5005078;28;20037;-51
2023/09/30 04:08:46;;;;;;;16.65;9.38;;;20.70;89.70;;;;;;5006083;28;20027;-51
2023/09/30 04:11:17;;;;;;;17.50;9.75;;;20.60;89.80;;;;;;5021256;28;20046;-51
2023/09/30 04:13:44;;;;;;;16.17;10.35;;;20.60;89.90;;;;;;5036238;28;20395;-51
2023/09/30 04:16:10;;;;;;;17.30;10.07;;;20.60;90.20;;;;;;5037963;28;20031;-51
2023/09/30 04:18:35;;;;;;;14.73;9.35;;;20.60;89.80;;;;;;5005886;28;20042;-51
2023/09/30 04:21:04;;;;;;;19.42;11.18;;;20.60;89.80;;;;;;5037649;28;20061;-51
2023/09/30 04:23:30;;;;;;;18.77;10.15;;;20.60;89.80;;;;;;5006178;28;20033;-52
2023/09/30 04:25:55;;;;;;;15.25;10.15;;;20.60;89.80;;;;;;5037729;28;20034;-51
2023/09/30 04:28:21;;;;;;;19.27;10.85;;;20.60;89.90;;;;;;5037334;28;20043;-51
2023/09/30 04:30:50;;;;;;;18.45;10.50;;;20.60;89.90;;;;;;5039055;28;20045;-51
2023/09/30 04:33:17;;;;;;;16.85;10.30;;;20.60;89.80;;;;;;5009283;28;20034;-51
2023/09/30 04:35:44;;;;;;;17.17;10.82;;;20.60;89.90;;;;;;5024582;28;20053;-51
2023/09/30 04:38:10;;;;;;;16.33;10.25;;;20.60;90.00;;;;;;5024210;28;20030;-51
2023/09/30 04:40:36;;;;;;;15.98;9.65;;;20.60;90.00;;;;;;5009657;28;20093;-51
2023/09/30 04:43:02;;;;;;;14.18;9.65;;;20.60;90.00;;;;;;5041137;28;20037;-51
2023/09/30 04:45:27;;;;;;;19.30;10.10;;;20.60;90.00;;;;;;5009650;28;20037;-52
2023/09/30 04:47:53;;;;;;;16.17;10.43;;;20.60;90.30;;;;;;5041039;28;20030;-51
2023/09/30 04:50:21;;;;;;;15.57;10.30;;;20.50;89.90;;;;;;5008080;28;20058;-51
2023/09/30 04:52:47;;;;;;;15.10;9.02;;;20.50;90.00;;;;;;5009273;28;20054;-51
2023/09/30 04:55:15;;;;;;;16.45;10.18;;;20.50;90.00;;;;;;5040779;28;20034;-51
2023/09/30 04:57:44;;;;;;;16.52;9.38;;;20.60;90.00;;;;;;5040077;28;20109;-51
2023/09/30 05:00:11;;;;;;;15.55;8.77;;;20.50;90.00;;;;;;5039923;28;20022;-52
2023/09/30 05:02:37;;;;;;;13.73;8.63;;;20.50;90.00;;;;;;5008886;28;20034;-51
2023/09/30 05:05:06;;;;;;;15.15;8.77;;;20.50;90.00;;;;;;5024163;28;20041;-52
2023/09/30 05:07:34;;;;;;;15.43;8.60;;;20.50;90.00;;;;;;5009006;28;20031;-51
2023/09/30 05:09:59;;;;;;;15.93;9.27;;;20.50;90.30;;;;;;5023575;28;20038;-51
2023/09/30 05:12:25;;;;;;;14.23;8.43;;;20.50;90.00;;;;;;5040414;28;20031;-51
2023/09/30 05:14:52;;;;;;;14.43;8.73;;;20.50;90.10;;;;;;5008765;28;20030;-52
2023/09/30 05:17:17;;;;;;;16.90;8.40;;;20.50;90.10;;;;;;5039976;28;20030;-51
2023/09/30 05:19:44;;;;;;;16.35;8.77;;;20.40;90.00;;;;;;5023616;28;20034;-51
2023/09/30 05:22:10;;;;;;;14.27;8.40;;;20.50;90.10;;;;;;5040054;28;20035;-51
2023/09/30 05:24:35;;;;;;;14.73;8.35;;;20.40;90.10;;;;;;5008796;28;20034;-51
2023/09/30 05:27:01;;;;;;;14.20;8.40;;;20.40;90.10;;;;;;5040149;28;20038;-52
2023/09/30 05:29:29;;;;;;;14.73;8.40;;;20.50;90.10;;;;;;5023470;28;20049;-51
2023/09/30 05:31:54;;;;;;;11.93;7.78;;;20.40;90.10;;;;;;5040264;28;20033;-51
2023/09/30 05:34:20;;;;;;;15.73;8.57;;;20.40;90.10;;;;;;5040069;28;20493;-51
2023/09/30 05:36:45;;;;;;;13.52;8.55;;;20.40;90.20;;;;;;5040161;28;20057;-51
2023/09/30 05:39:11;;;;;;;13.00;8.30;;;20.40;90.20;;;;;;5039931;28;20034;-51
2023/09/30 05:41:38;;;;;;;14.25;7.80;;;20.40;90.30;;;;;;5040086;28;20078;-51
2023/09/30 05:44:04;;;;;;;15.68;8.63;;;20.40;90.30;;;;;;5039855;28;20037;-51
2023/09/30 05:46:33;;;;;;;15.00;7.93;;;20.40;90.30;;;;;;5039884;28;20050;-51
2023/09/30 05:48:58;;;;;;;14.23;8.35;;;20.40;90.30;;;;;;5039965;28;20046;-51
2023/09/30 05:51:24;;;;;;;13.25;7.85;;;20.40;90.30;;;;;;5008825;28;20022;-51
2023/09/30 05:53:50;;;;;;;13.07;8.05;;;20.30;90.30;;;;;;5006617;28;20080;-51
2023/09/30 05:56:15;;;;;;;14.55;7.72;;;20.40;90.40;;;;;;5039454;28;20018;-51
2023/09/30 05:58:42;;;;;;;15.80;8.35;;;20.30;90.40;;;;;;5007625;28;20034;-51
2023/09/30 06:01:10;;;;;;;19.90;8.23;;;20.40;90.40;;;;;;5017692;28;20182;-52
2023/09/30 06:03:39;;;;;;;16.20;7.43;;;20.30;90.40;;;;;;5013909;28;20022;-52
2023/09/30 06:06:12;;;;;;;12.93;7.63;;;20.30;90.40;;;;;;5029956;28;20512;-51
2023/09/30 06:08:37;;;;;;;13.32;8.30;;;20.30;90.40;;;;;;5030041;28;20042;-51
2023/09/30 06:11:03;;;;;;;12.20;7.20;;;20.30;90.40;;;;;;5033143;28;20032;-51
2023/09/30 06:13:31;;;;;;;13.38;8.07;;;20.30;90.40;;;;;;5024829;28;20030;-51
2023/09/30 06:15:57;;;;;;;13.95;7.78;;;20.30;90.40;;;;;;5027260;28;20057;-51
2023/09/30 06:18:23;;;;;;;16.42;8.30;;;20.30;90.40;;;;;;5001077;28;20048;-51
2023/09/30 06:20:49;;;;;;;14.70;8.18;;;20.20;90.40;;;;;;5024226;28;20042;-51
2023/09/30 06:23:15;;;;;;;13.68;8.20;;;20.30;90.40;;;;;;5038118;28;20025;-51
2023/09/30 06:25:41;;;;;;;14.02;7.70;;;20.30;90.40;;;;;;5013651;28;20022;-51
2023/09/30 06:28:08;;;;;;;15.82;7.70;;;20.30;90.50;;;;;;5022840;28;20099;-51
2023/09/30 06:30:33;;;;;;;16.65;8.73;;;20.30;90.50;;;;;;5021887;28;20034;-52
2023/09/30 06:33:00;;;;;;;12.55;7.72;;;20.30;90.50;;;;;;5040026;28;20103;-51
2023/09/30 06:35:30;;;;;;;14.60;7.75;;;20.30;90.60;;;;;;5023080;28;20056;-51
2023/09/30 06:37:55;;;;;;;14.95;8.25;;;20.30;90.60;;;;;;5039512;28;20030;-51
2023/09/30 06:40:22;;;;;;;12.02;7.13;;;20.30;90.50;;;;;;5039957;28;20042;-51
2023/09/30 06:42:47;;;;;;;13.40;7.60;;;20.30;90.50;;;;;;5006824;28;20113;-51
2023/09/30 06:45:13;;;;;;;15.55;8.50;;;20.30;90.50;;;;;;5041362;28;20044;-51
2023/09/30 06:47:39;;;;;;;14.20;7.82;;;20.30;90.60;;;;;;5044852;28;20029;-51
2023/09/30 06:50:12;;;;;;;14.20;7.43;;;20.30;90.90;;;;;;5045199;28;20044;-51
2023/09/30 06:52:40;;;;;;;13.88;7.70;;;20.30;90.60;;;;;;5028918;28;20041;-51
2023/09/30 06:55:07;;;;;;;16.33;7.60;;;20.30;90.50;;;;;;5028786;28;20038;-51
2023/09/30 06:57:33;;;;;;;14.15;7.70;;;20.30;90.50;;;;;;5045198;28;20025;-51
2023/09/30 06:59:59;;;;;;;13.63;8.10;;;20.30;90.50;;;;;;5045091;28;20481;-51
2023/09/30 07:02:25;;;;;;;14.23;7.90;;;20.30;90.50;;;;;;5046530;28;20029;-51
2023/09/30 07:04:51;;;;;;;14.38;8.38;;;20.30;90.50;;;;;;5044807;28;20034;-52
2023/09/30 07:07:16;;;;;;;15.80;8.23;;;20.30;90.40;;;;;;5045088;28;20124;-51
2023/09/30 07:09:43;;;;;;;15.82;7.78;;;20.30;90.50;;;;;;5044930;28;20045;-52
2023/09/30 07:12:09;;;;;;;11.00;7.28;;;20.30;90.40;;;;;;5044900;28;20025;-51
2023/09/30 07:14:34;;;;;;;16.83;8.32;;;20.30;90.40;;;;;;5044930;28;20037;-51
2023/09/30 07:17:00;;;;;;;12.77;7.43;;;20.30;90.40;;;;;;5045056;28;20032;-51
2023/09/30 07:19:25;;;;;;;11.70;7.53;;;20.30;90.40;;;;;;5044903;28;20044;-51
2023/09/30 07:21:51;;;;;;;13.88;8.38;;;20.30;90.40;;;;;;5046135;28;20029;-51
2023/09/30 07:24:16;;;;;;;14.35;8.05;;;20.30;90.30;;;;;;5045818;28;20041;-51
2023/09/30 07:26:42;;;;;;;14.30;7.95;;;20.30;90.30;;;;;;5045897;28;20401;-51
2023/09/30 07:29:09;;;;;;;15.95;8.07;;;20.30;90.30;;;;;;5011745;28;20061;-51
2023/09/30 07:31:37;;;;;;;16.08;8.05;;;20.40;90.30;;;;;;5044669;28;20097;-51
2023/09/30 07:34:03;;;;;;;13.80;7.70;;;20.40;90.30;;;;;;5045770;28;20112;-51
2023/09/30 07:36:29;;;;;;;15.07;7.85;;;20.40;90.30;;;;;;5044872;28;20029;-51
2023/09/30 07:38:55;;;;;;;17.50;8.13;;;20.40;90.30;;;;;;5044649;28;20076;-51
2023/09/30 07:41:21;;;;;;;12.65;7.88;;;20.40;90.30;;;;;;5028333;28;20025;-51
2023/09/30 07:43:46;;;;;;;14.05;8.07;;;20.40;90.30;;;;;;5044654;28;20053;-51
2023/09/30 07:46:12;;;;;;;13.07;7.38;;;20.40;90.30;;;;;;5044462;28;20025;-51
2023/09/30 07:48:39;;;;;;;15.98;8.27;;;20.40;90.30;;;;;;5038088;28;20035;-51
2023/09/30 07:51:06;;;;;;;12.30;7.57;;;20.40;90.30;;;;;;5043817;28;20029;-52
2023/09/30 07:53:32;;;;;;;15.75;7.95;;;20.40;90.20;;;;;;5028485;28;20018;-52
2023/09/30 07:55:57;;;;;;;13.00;7.70;;;20.40;90.20;;;;;;5043620;28;20433;-51
2023/09/30 07:58:23;;;;;;;14.13;7.63;;;20.40;90.20;;;;;;5044465;28;20017;-51
2023/09/30 08:00:48;;;;;;;11.82;7.78;;;20.40;90.20;;;;;;5016235;28;20543;-51
2023/09/30 08:03:14;;;;;;;13.18;7.93;;;20.40;90.20;;;;;;5057069;28;20026;-51
2023/09/30 08:05:40;;;;;;;13.25;8.27;;;20.50;90.20;;;;;;5024190;28;20026;-52
2023/09/30 08:08:05;;;;;;;16.67;8.45;;;20.40;90.60;;;;;;5003134;28;20033;-51
2023/09/30 08:10:31;;;;;;;12.55;7.50;;;20.40;90.20;;;;;;5034238;28;20030;-51
2023/09/30 08:12:58;;;;;;;15.07;8.30;;;20.40;90.30;;;;;;5044113;28;20489;-51
2023/09/30 08:15:26;;;;;;;17.13;8.38;;;20.40;90.30;;;;;;5056541;28;20025;-51
2023/09/30 08:17:52;;;;;;;14.85;8.52;;;20.40;90.20;;;;;;5025605;28;20375;-51
2023/09/30 08:20:18;;;;;;;12.25;7.88;;;20.40;90.30;;;;;;5023739;28;20037;-51
2023/09/30 08:22:44;;;;;;;11.98;8.02;;;20.40;90.40;;;;;;5021953;28;20048;-51
2023/09/30 08:25:10;;;;;;;15.27;8.43;;;20.30;90.70;;;;;;5023718;28;20030;-51
2023/09/30 08:27:36;;;;;;;15.18;7.97;;;20.30;90.50;;;;;;5027801;28;20466;-51
2023/09/30 08:30:05;;;;;;;18.13;8.48;;;20.30;90.60;;;;;;5025494;28;20227;-52
2023/09/30 08:32:36;;;;;;;18.50;8.85;;;20.30;90.60;;;;;;5031630;28;20454;-51
2023/09/30 08:35:03;;;;;;;23.40;8.23;;;20.30;90.60;;;;;;5031194;28;20026;-51
2023/09/30 08:37:29;;;;;;;19.15;9.02;;;20.30;90.60;;;;;;5035608;28;20493;-51
2023/09/30 08:39:55;;;;;;;31.83;9.88;;;20.40;90.60;;;;;;5028848;28;20516;-51
2023/09/30 08:42:20;;;;;;;32.08;9.75;;;20.40;90.50;;;;;;5021200;28;20030;-51
2023/09/30 08:44:46;;;;;;;27.88;9.90;;;20.40;90.90;;;;;;5026153;28;20046;-51
2023/09/30 08:47:11;;;;;;;25.45;9.45;;;20.40;90.60;;;;;;5027362;28;20091;-52
2023/09/30 08:49:38;;;;;;;48.80;11.45;;;20.40;90.70;;;;;;5026673;28;20061;-51
2023/09/30 08:52:05;;;;;;;33.13;9.68;;;20.50;90.80;;;;;;5026795;28;20022;-51
2023/09/30 08:54:31;;;;;;;31.17;11.15;;;20.50;90.80;;;;;;5027152;28;20030;-51
2023/09/30 08:56:57;;;;;;;30.48;10.77;;;20.50;90.80;;;;;;5027194;28;20504;-51
2023/09/30 08:59:23;;;;;;;36.05;9.48;;;20.50;90.70;;;;;;5036971;28;20089;-51
2023/09/30 09:01:48;;;;;;;30.38;10.10;;;20.50;90.80;;;;;;5032195;28;20060;-51
2023/09/30 09:04:14;;;;;;;54.70;12.77;;;20.50;90.80;;;;;;5027741;28;20029;-52
2023/09/30 09:06:41;;;;;;;35.85;10.68;;;20.60;90.90;;;;;;5019923;28;20029;-52
2023/09/30 09:09:14;;;;;;;39.90;13.00;;;20.60;90.90;;;;;;5036410;28;20057;-51
2023/09/30 09:11:40;;;;;;;48.10;12.05;;;20.60;90.90;;;;;;5025754;28;20043;-51
2023/09/30 09:14:07;;;;;;;54.15;12.60;;;20.60;91.00;;;;;;5015044;28;20474;-51
2023/09/30 09:16:32;;;;;;;66.90;12.85;;;20.70;91.00;;;;;;5023272;28;20022;-51
2023/09/30 09:18:58;;;;;;;46.08;11.90;;;20.70;90.80;;;;;;5049636;28;20080;-52
2023/09/30 09:21:26;;;;;;;66.13;14.30;;;20.70;90.70;;;;;;5057201;28;20454;-51
2023/09/30 09:23:51;;;;;;;74.93;15.38;;;20.80;91.00;;;;;;5024709;28;20025;-51
2023/09/30 09:26:25;;;;;;;70.70;14.98;;;20.80;91.00;;;;;;5024641;28;20536;-52
2023/09/30 09:28:58;;;;;;;127.10;18.58;;;20.80;91.10;;;;;;5040333;28;20478;-52
2023/09/30 09:31:27;;;;;;;92.97;18.80;;;20.90;91.10;;;;;;5036569;28;20029;-52
2023/09/30 09:33:53;;;;;;;112.15;18.15;;;20.90;91.20;;;;;;5034859;28;20018;-51
2023/09/30 09:36:19;;;;;;;113.90;18.25;;;20.90;91.20;;;;;;5024909;28;20018;-50
2023/09/30 09:38:53;;;;;;;99.22;18.65;;;21.00;91.10;;;;;;5024073;28;20034;-51
2023/09/30 09:41:19;;;;;;;104.25;16.70;;;21.00;91.00;;;;;;5017949;28;20050;-51
2023/09/30 09:43:45;;;;;;;123.97;20.40;;;21.10;90.90;;;;;;5032285;28;20033;-52
2023/09/30 09:46:11;;;;;;;112.47;18.73;;;21.10;91.20;;;;;;5021819;28;20386;-51
2023/09/30 09:48:37;;;;;;;128.75;20.95;;;21.20;91.20;;;;;;4997305;28;20066;-52
2023/09/30 09:51:05;;;;;;;101.07;19.88;;;21.20;91.00;;;;;;5007058;28;20017;-51
2023/09/30 09:53:31;;;;;;;132.80;21.65;;;21.20;91.00;;;;;;5015536;28;20033;-51
2023/09/30 09:55:57;;;;;;;128.23;21.05;;;21.20;91.00;;;;;;5022527;28;20033;-51
2023/09/30 09:58:24;;;;;;;115.72;20.60;;;21.20;91.10;;;;;;5030162;28;20018;-51
2023/09/30 10:00:51;;;;;;;125.45;22.38;;;21.30;91.00;;;;;;5034549;28;20030;-51
2023/09/30 10:03:17;;;;;;;119.18;22.15;;;21.30;91.00;;;;;;5040166;28;20033;-51
2023/09/30 10:05:42;;;;;;;135.73;22.50;;;21.30;91.00;;;;;;5022269;28;20022;-52
2023/09/30 10:08:11;;;;;;;171.35;25.55;;;21.30;90.90;;;;;;5007210;28;20050;-51
2023/09/30 10:10:40;;;;;;;144.23;23.83;;;21.40;90.90;;;;;;5024578;28;20037;-51
2023/09/30 10:13:05;;;;;;;140.18;23.15;;;21.40;91.10;;;;;;5057254;28;20105;-51
2023/09/30 10:15:36;;;;;;;166.35;25.80;;;21.40;91.10;;;;;;5039104;28;20032;-51
2023/09/30 10:18:11;;;;;;;173.77;23.80;;;21.50;91.00;;;;;;5038887;28;20038;-52
2023/09/30 10:20:38;;;;;;;;;;;21.50;90.90;;;;;;5034904;28;20090;-51
2023/09/30 10:23:27;;;;;;;152.68;24.30;;;21.50;90.80;;;;;;5017561;28;19966;-52
2023/09/30 10:25:57;;;;;;;130.00;22.58;;;21.50;90.80;;;;;;5015866;28;20037;-51
2023/09/30 10:28:44;;;;;;;137.75;21.48;;;21.50;90.70;;;;;;5018041;28;20057;-52
2023/09/30 10:31:21;;;;;;;182.45;24.65;;;21.60;90.60;;;;;;5012255;28;20117;-51
2023/09/30 10:34:02;;;;;;;160.15;22.63;;;21.50;90.60;;;;;;5017627;28;20032;-51
2023/09/30 10:36:32;;;;;;;149.43;21.92;;;21.50;90.50;;;;;;5024767;28;20045;-52
2023/09/30 10:38:57;;;;;;;158.88;24.20;;;21.50;90.50;;;;;;5020291;28;20042;-51
2023/09/30 10:41:50;;;;;;;134.75;21.98;;;21.50;90.40;;;;;;5021700;28;20033;-51
2023/09/30 10:44:29;;;;;;;126.78;23.13;;;21.60;90.40;;;;;;5036697;28;20042;-51
2023/09/30 10:47:21;;;;;;;127.03;22.40;;;21.60;90.20;;;;;;5009959;28;20025;-51
2023/09/30 10:49:46;;;;;;;161.93;23.63;;;21.60;90.10;;;;;;5016456;28;20046;-51
2023/09/30 10:52:12;;;;;;;125.75;22.40;;;21.60;90.10;;;;;;5009479;28;20072;-51
2023/09/30 10:54:38;;;;;;;160.23;25.02;;;21.70;90.00;;;;;;5006669;28;20030;-51
2023/09/30 10:57:04;;;;;;;164.50;25.33;;;21.70;90.00;;;;;;5026041;28;20026;-51
2023/09/30 10:59:30;;;;;;;176.73;26.23;;;21.70;89.60;;;;;;5025196;28;20479;-51
2023/09/30 11:01:56;;;;;;;128.38;20.60;;;21.70;89.40;;;;;;5026162;28;20094;-51
2023/09/30 11:04:21;;;;;;;130.75;23.52;;;21.80;89.40;;;;;;5056217;28;20034;-51
2023/09/30 11:06:47;;;;;;;113.20;22.38;;;21.80;89.00;;;;;;5024480;28;20037;-51
2023/09/30 11:09:16;;;;;;;121.55;22.30;;;21.90;88.80;;;;;;5024351;28;20386;-52
2023/09/30 11:11:49;;;;;;;128.48;21.83;;;21.90;88.60;;;;;;5032149;28;20100;-51
2023/09/30 11:14:22;;;;;;;117.45;21.50;;;21.90;88.20;;;;;;5022050;28;20056;-51
2023/09/30 11:16:48;;;;;;;122.07;23.83;;;22.00;88.00;;;;;;5024162;28;20026;-51
2023/09/30 11:19:15;;;;;;;161.45;25.58;;;22.00;88.50;;;;;;5040103;28;20030;-51
2023/09/30 11:21:40;;;;;;;196.48;29.02;;;22.00;87.70;;;;;;5025973;28;20028;-52
2023/09/30 11:24:07;;;;;;;183.60;26.48;;;22.10;87.50;;;;;;5032904;28;20038;-51
2023/09/30 11:26:33;;;;;;;154.48;23.48;;;22.10;87.40;;;;;;5022444;28;20167;-51
2023/09/30 11:29:13;;;;;;;132.45;22.83;;;22.10;87.10;;;;;;5021845;28;20038;-51
2023/09/30 11:31:47;;;;;;;131.55;21.95;;;22.20;87.00;;;;;;5012946;28;20061;-51
2023/09/30 11:34:13;;;;;;;125.82;21.65;;;22.20;86.70;;;;;;5024434;28;20056;-51
2023/09/30 11:36:52;;;;;;;140.35;21.55;;;22.20;86.70;;;;;;5025638;28;20030;-51
2023/09/30 11:39:30;;;;;;;137.15;24.73;;;22.30;86.50;;;;;;5023864;28;20054;-51
2023/09/30 11:41:57;;;;;;;138.38;22.92;;;22.30;86.20;;;;;;5033699;28;20097;-51
2023/09/30 11:44:23;;;;;;;149.00;26.00;;;22.30;85.90;;;;;;5024849;28;20034;-51
2023/09/30 11:47:04;;;;;;;177.57;26.00;;;22.30;85.70;;;;;;5014244;28;20046;-51
2023/09/30 11:49:39;;;;;;;162.55;25.77;;;22.40;86.30;;;;;;5026311;28;20029;-51
2023/09/30 11:52:07;;;;;;;;;;;22.40;85.90;;;;;;5027385;28;20033;-51
2023/09/30 11:54:33;;;;;;;167.10;24.30;;;22.40;85.60;;;;;;5053879;28;20340;-51
2023/09/30 11:57:03;;;;;;;127.88;23.27;;;22.40;85.50;;;;;;5024651;28;20029;-51
2023/09/30 11:59:29;;;;;;;127.82;22.55;;;22.40;85.30;;;;;;5029221;28;20113;-51
2023/09/30 12:01:54;;;;;;;110.57;21.15;;;22.40;85.00;;;;;;5028682;28;20029;-51
2023/09/30 12:04:21;;;;;;;116.82;19.67;;;22.50;85.00;;;;;;5042966;28;20026;-51
2023/09/30 12:06:48;;;;;;;107.80;21.70;;;22.50;84.80;;;;;;5044200;28;20093;-51
2023/09/30 12:09:21;;;;;;;131.95;23.75;;;22.50;84.40;;;;;;5044517;28;20042;-51
2023/09/30 12:11:47;;;;;;;114.93;21.25;;;22.50;84.40;;;;;;5043999;28;20030;-51
2023/09/30 12:14:13;;;;;;;123.88;21.63;;;22.50;84.10;;;;;;5020087;28;20473;-51
2023/09/30 12:16:39;;;;;;;117.35;22.38;;;22.50;84.00;;;;;;5039115;28;20032;-52
2023/09/30 12:19:06;;;;;;;123.32;19.77;;;22.50;84.00;;;;;;5008238;28;20040;-51
2023/09/30 12:21:31;;;;;;;106.60;20.38;;;22.60;83.80;;;;;;5038609;28;20026;-51
2023/09/30 12:23:57;;;;;;;105.05;20.63;;;22.50;83.50;;;;;;5026040;28;20048;-51
2023/09/30 12:26:23;;;;;;;133.88;22.95;;;22.60;83.50;;;;;;5024176;28;20034;-52
2023/09/30 12:28:48;;;;;;;114.07;21.23;;;22.60;83.40;;;;;;5023886;28;20033;-51